createdAt,value
2022-10-22T05:30:07.628Z,99.90
2022-10-22T05:33:01.601Z,99.90
2022-10-22T05:35:32.549Z,99.90
2022-10-22T05:38:19.296Z,99.90
2022-10-22T05:40:49.622Z,99.90
2022-10-22T05:43:28.516Z,99.90
2022-10-22T05:46:10.718Z,99.90
2022-10-22T05:48:50.684Z,99.90
2022-10-22T05:51:27.963Z,99.90
2022-10-22T05:54:03.204Z,99.90
2022-10-22T05:56:42.334Z,99.90
2022-10-22T05:59:14.310Z,99.90
2022-10-22T06:01:44.443Z,99.90
2022-10-22T06:04:23.360Z,99.90
2022-10-22T06:06:54.681Z,99.90
2022-10-22T06:09:25.534Z,99.90
2022-10-22T06:11:54.807Z,99.90
2022-10-22T06:14:45.920Z,99.90
2022-10-22T06:17:16.346Z,99.90
2022-10-22T06:19:47.164Z,99.90
2022-10-22T06:22:15.470Z,99.90
2022-10-22T06:24:45.874Z,99.90
2022-10-22T06:27:14.333Z,99.90
2022-10-22T06:29:49.771Z,99.90
2022-10-22T06:35:37.658Z,99.90
2022-10-22T06:38:06.642Z,99.90
2022-10-22T06:40:39.585Z,99.90
2022-10-22T06:43:14.129Z,99.90
2022-10-22T06:45:52.876Z,99.90
2022-10-22T06:48:24.928Z,99.90
2022-10-22T06:50:57.384Z,99.90
2022-10-22T06:53:40.008Z,99.90
2022-10-22T06:56:23.327Z,99.90
2022-10-22T06:58:52.545Z,99.90
2022-10-22T07:01:29.727Z,99.90
2022-10-22T07:04:03.480Z,99.90
2022-10-22T07:06:34.834Z,99.90
2022-10-22T07:09:03.684Z,99.90
2022-10-22T07:11:35.432Z,99.90
2022-10-22T07:14:04.061Z,99.90
2022-10-22T07:16:38.463Z,99.90
2022-10-22T07:19:10.500Z,99.90
2022-10-22T07:21:39.134Z,99.90
2022-10-22T07:24:09.029Z,99.90
2022-10-22T07:26:38.186Z,99.90
2022-10-22T07:29:06.978Z,99.90
2022-10-22T07:31:55.485Z,99.90
2022-10-22T07:34:27.262Z,99.90
2022-10-22T07:36:57.613Z,99.90
2022-10-22T07:39:26.466Z,99.90
2022-10-22T07:41:57.981Z,99.90
2022-10-22T07:44:28.097Z,99.90
2022-10-22T07:46:59.223Z,99.90
2022-10-22T07:49:32.113Z,99.90
2022-10-22T07:52:16.541Z,99.90
2022-10-22T07:54:50.173Z,99.90
2022-10-22T07:57:20.748Z,99.90
2022-10-22T07:59:49.484Z,99.90
2022-10-22T08:02:20.604Z,99.90
2022-10-22T08:04:53.169Z,99.90
2022-10-22T08:07:23.763Z,99.90
2022-10-22T08:09:58.754Z,99.90
2022-10-22T08:12:27.258Z,99.90
2022-10-22T08:14:57.903Z,99.90
2022-10-22T08:17:26.457Z,99.90
2022-10-22T08:20:00.819Z,78.70
2022-10-22T08:22:29.370Z,98.30
2022-10-22T08:24:57.702Z,97.80
2022-10-22T08:27:27.645Z,90.10
2022-10-22T08:29:56.020Z,59.70
2022-10-22T08:32:24.691Z,74.90
2022-10-22T08:34:54.485Z,76.10
2022-10-22T08:37:24.494Z,85.60
2022-10-22T08:39:52.977Z,83.50
2022-10-22T08:42:35.949Z,53.50
2022-10-22T08:45:10.484Z,77.10
2022-10-22T08:47:48.156Z,63.00
2022-10-22T08:50:21.565Z,61.80
2022-10-22T08:52:55.319Z,89.60
2022-10-22T08:55:24.819Z,72.10
2022-10-22T08:58:02.925Z,63.20
2022-10-22T09:00:39.239Z,41.30
2022-10-22T09:03:13.637Z,73.20
2022-10-22T09:08:23.677Z,52.70
2022-10-22T09:10:54.517Z,35.20
2022-10-22T09:13:24.858Z,26.30
2022-10-22T09:16:00.214Z,42.30
2022-10-22T09:18:38.004Z,56.40
2022-10-22T09:21:12.020Z,33.60
2022-10-22T09:23:53.376Z,52.00
2022-10-22T09:26:23.417Z,54.20
2022-10-22T09:28:52.394Z,33.50
2022-10-22T09:31:20.854Z,50.60
2022-10-22T09:33:51.961Z,35.10
2022-10-22T09:36:23.171Z,26.70
2022-10-22T09:39:06.416Z,1.00
2022-10-22T09:41:36.419Z,1.00
2022-10-22T09:44:11.309Z,1.00
2022-10-22T09:46:44.340Z,1.00
2022-10-22T09:49:19.040Z,1.00
2022-10-22T09:51:52.107Z,1.00
2022-10-22T09:54:21.863Z,1.00
2022-10-22T09:57:01.256Z,99.90
2022-10-22T09:59:33.132Z,1.00
2022-10-22T10:02:13.651Z,1.00
2022-10-22T10:04:49.692Z,1.00
2022-10-22T10:07:19.660Z,1.00
2022-10-22T10:09:47.889Z,1.00
2022-10-22T10:12:29.126Z,99.90
2022-10-22T10:15:02.526Z,99.90
2022-10-22T10:17:35.693Z,99.90
2022-10-22T10:20:07.501Z,99.90
2022-10-22T10:47:48.558Z,99.90
2022-10-22T10:50:30.663Z,1.00
2022-10-22T10:53:04.335Z,1.00
2022-10-22T10:55:43.414Z,99.90
2022-10-22T10:58:20.344Z,99.90
2022-10-22T11:01:16.345Z,99.90
2022-10-22T11:04:09.115Z,99.90
2022-10-22T11:06:41.895Z,99.90
2022-10-22T11:09:17.718Z,99.90
2022-10-22T11:11:54.719Z,99.90
2022-10-22T11:14:31.893Z,99.90
2022-10-22T11:17:03.190Z,99.90
2022-10-22T11:19:50.921Z,99.90
2022-10-22T11:22:27.476Z,99.90
2022-10-22T11:25:01.800Z,99.90
2022-10-22T11:27:37.745Z,99.90
2022-10-22T11:30:13.750Z,99.90
2022-10-22T11:32:57.534Z,99.90
2022-10-22T11:35:32.071Z,99.90
2022-10-22T11:38:05.103Z,99.90
2022-10-22T11:40:36.146Z,99.90
2022-10-22T11:43:08.585Z,99.90
2022-10-22T11:45:40.280Z,99.90
2022-10-22T11:48:17.617Z,99.90
2022-10-22T11:50:48.561Z,99.90
2022-10-22T11:53:30.032Z,99.90
2022-10-22T11:56:01.854Z,99.90
2022-10-22T11:58:45.169Z,99.90
2022-10-22T12:01:37.020Z,99.90
2022-10-22T12:04:18.917Z,99.90
2022-10-22T12:07:29.088Z,99.90
2022-10-22T12:10:07.727Z,99.90
2022-10-22T12:12:38.660Z,99.90
2022-10-22T12:15:37.525Z,99.90
2022-10-22T12:18:09.629Z,99.90
2022-10-22T12:20:40.114Z,99.90
2022-10-22T12:23:15.565Z,99.90
2022-10-22T12:25:54.320Z,99.90
2022-10-22T12:28:23.986Z,99.90
2022-10-22T12:30:52.537Z,99.90
2022-10-22T12:33:22.906Z,99.90
2022-10-22T12:35:55.764Z,99.90
2022-10-22T12:38:25.875Z,1.00
2022-10-22T12:40:57.402Z,1.00
2022-10-22T12:43:26.874Z,99.90
2022-10-22T12:46:16.435Z,99.90
2022-10-22T12:48:47.856Z,99.90
2022-10-22T12:51:18.081Z,99.90
2022-10-22T12:53:50.552Z,99.90
2022-10-22T12:56:23.460Z,99.90
2022-10-22T12:58:54.851Z,99.90
2022-10-22T13:01:23.552Z,99.90
2022-10-22T13:04:06.601Z,99.90
2022-10-22T13:06:39.682Z,99.90
2022-10-22T13:09:12.505Z,99.90
2022-10-22T13:11:44.394Z,72.70
2022-10-22T13:14:22.276Z,50.30
2022-10-22T13:17:10.228Z,98.80
2022-10-22T13:19:40.259Z,26.30
2022-10-22T13:22:23.417Z,6.00
2022-10-22T13:24:55.122Z,9.80
2022-10-22T13:27:45.541Z,1.00
2022-10-22T13:30:23.809Z,1.00
2022-10-22T13:32:56.741Z,1.00
2022-10-22T13:35:29.427Z,1.00
2022-10-22T13:38:00.804Z,1.00
2022-10-22T13:40:29.336Z,1.00
2022-10-22T13:43:00.802Z,1.00
2022-10-22T13:45:30.766Z,1.00
2022-10-22T13:48:20.816Z,1.00
2022-10-22T13:51:01.659Z,1.00
2022-10-22T13:53:34.420Z,1.00
2022-10-22T13:56:05.615Z,1.00
2022-10-22T13:58:34.532Z,1.00
2022-10-22T14:01:10.263Z,1.00
2022-10-22T14:03:42.289Z,1.00
2022-10-22T14:06:15.902Z,1.00
2022-10-22T14:08:45.059Z,1.00
2022-10-22T14:11:16.859Z,1.00
2022-10-22T14:13:51.571Z,1.00
2022-10-22T14:16:33.669Z,1.00
2022-10-22T14:19:02.576Z,1.00
2022-10-22T14:21:36.035Z,1.00
2022-10-22T14:24:06.237Z,1.00
2022-10-22T14:26:37.051Z,1.00
2022-10-22T14:29:09.754Z,1.00
2022-10-22T14:31:44.635Z,1.00
2022-10-22T14:34:16.805Z,1.00
2022-10-22T14:36:47.272Z,1.00
2022-10-22T14:39:21.790Z,1.00
2022-10-22T14:41:50.346Z,1.00
2022-10-22T14:44:31.112Z,1.00
2022-10-22T14:47:11.111Z,1.00
2022-10-22T14:49:43.217Z,1.00
2022-10-22T14:52:15.639Z,1.00
2022-10-22T14:54:47.497Z,1.00
2022-10-22T14:57:16.973Z,1.00
2022-10-22T15:00:13.698Z,1.00
2022-10-22T15:02:44.307Z,1.00
2022-10-22T15:05:19.089Z,1.00
2022-10-22T15:07:59.515Z,1.00
2022-10-22T15:10:30.874Z,1.00
2022-10-22T15:13:01.343Z,1.00
2022-10-22T15:15:43.018Z,1.00
2022-10-22T15:18:21.144Z,1.00
2022-10-22T15:20:57.155Z,1.00
2022-10-22T15:23:43.333Z,1.00
2022-10-22T15:26:12.397Z,1.00
2022-10-22T15:28:45.760Z,1.00
2022-10-22T15:31:15.141Z,1.00
2022-10-22T15:33:51.626Z,1.00
2022-10-22T15:36:33.394Z,1.00
2022-10-22T15:39:11.457Z,1.00
2022-10-22T15:41:42.150Z,1.00
2022-10-22T15:44:23.254Z,1.00
2022-10-22T15:47:03.276Z,1.00
2022-10-22T15:49:49.671Z,11.00
2022-10-22T15:52:18.525Z,36.70
2022-10-22T15:55:04.541Z,47.40
2022-10-22T15:57:39.397Z,70.40
2022-10-22T16:03:10.443Z,99.90
2022-10-22T16:05:52.263Z,99.90
2022-10-22T16:08:23.681Z,99.90
2022-10-22T16:10:59.783Z,99.90
2022-10-22T16:13:34.497Z,99.90
2022-10-22T16:16:10.579Z,99.90
2022-10-22T16:18:39.179Z,99.90
2022-10-22T16:21:16.907Z,99.90
2022-10-22T16:23:50.699Z,99.90
2022-10-22T16:26:31.836Z,1.00
2022-10-22T16:29:08.572Z,1.00
2022-10-22T16:31:41.001Z,1.00
2022-10-22T16:34:18.741Z,99.90
2022-10-22T16:36:49.997Z,99.90
2022-10-22T16:39:19.603Z,25.60
2022-10-22T16:41:57.018Z,1.00
2022-10-22T16:44:25.727Z,1.00
2022-10-22T16:47:13.839Z,99.90
2022-10-22T16:49:44.828Z,99.90
2022-10-22T16:52:18.388Z,1.00
2022-10-22T16:54:55.412Z,99.90
2022-10-22T16:57:37.503Z,99.90
2022-10-22T17:00:06.437Z,1.00
2022-10-22T17:02:39.579Z,1.00
2022-10-22T17:05:16.072Z,1.00
2022-10-22T17:07:50.659Z,99.90
2022-10-22T17:13:12.469Z,99.90
2022-10-22T17:15:44.706Z,1.00
2022-10-22T17:18:13.736Z,1.00
2022-10-22T17:21:17.103Z,69.30
2022-10-22T17:23:53.192Z,1.00
2022-10-22T17:26:34.115Z,1.00
2022-10-22T17:29:31.616Z,99.90
2022-10-22T17:32:16.220Z,99.90
2022-10-22T17:34:49.609Z,99.90
2022-10-22T17:37:22.840Z,1.00
2022-10-22T17:39:53.176Z,1.00
2022-10-22T17:42:38.590Z,1.00
2022-10-22T17:45:26.645Z,15.20
2022-10-22T17:47:57.099Z,99.90
2022-10-22T17:50:34.561Z,32.10
2022-10-22T17:53:05.420Z,1.00
2022-10-22T17:55:41.832Z,99.90
2022-10-22T17:58:10.360Z,1.00
2022-10-22T18:00:50.563Z,99.90
2022-10-22T18:03:41.106Z,88.20
2022-10-22T18:06:17.591Z,1.00
2022-10-22T18:08:56.329Z,1.00
2022-10-22T18:11:34.073Z,99.90
2022-10-22T18:14:06.556Z,97.10
2022-10-22T18:16:43.716Z,91.90
2022-10-22T18:19:30.083Z,99.90
2022-10-22T18:22:01.229Z,99.90
2022-10-22T18:24:39.085Z,62.60
2022-10-22T18:32:48.513Z,1.00
2022-10-22T18:47:36.204Z,29.00
2022-10-22T20:11:51.943Z,99.90
2022-10-22T22:05:21.437Z,1.00
2022-10-22T23:15:41.882Z,1.00
2022-10-22T23:18:20.985Z,1.00
2022-10-22T23:20:53.409Z,99.90
2022-10-22T23:23:22.358Z,1.00
2022-10-22T23:25:56.510Z,1.00
2022-10-22T23:28:32.334Z,66.80
2022-10-22T23:31:09.360Z,99.90
2022-10-22T23:33:46.438Z,99.90
2022-10-22T23:36:30.421Z,1.00
2022-10-22T23:39:21.644Z,99.90
2022-10-22T23:41:56.206Z,1.00
2022-10-22T23:44:47.149Z,1.00
2022-10-22T23:47:33.269Z,1.00
2022-10-22T23:50:03.446Z,1.00
2022-10-22T23:52:40.839Z,1.00
2022-10-22T23:55:17.731Z,1.00
2022-10-22T23:57:53.395Z,63.60
